sensor_id;sensor_type;location;lat;lon;timestamp;P1;durP1;ratioP1;P2;durP2;ratioP2
55672;SDS011;41554;45.366;20.400;2023-06-22T00:00:51;14.43;;;12.05;;
55672;SDS011;41554;45.366;20.400;2023-06-22T00:03:18;16.73;;;12.93;;
55672;SDS011;41554;45.366;20.400;2023-06-22T00:05:45;15.02;;;12.95;;
55672;SDS011;41554;45.366;20.400;2023-06-22T00:08:11;15.02;;;12.07;;
55672;SDS011;41554;45.366;20.400;2023-06-22T00:10:37;17.13;;;13.00;;
55672;SDS011;41554;45.366;20.400;2023-06-22T00:13:03;12.77;;;11.00;;
55672;SDS011;41554;45.366;20.400;2023-06-22T00:15:29;14.88;;;11.30;;
55672;SDS011;41554;45.366;20.400;2023-06-22T00:17:56;15.82;;;12.50;;
55672;SDS011;41554;45.366;20.400;2023-06-22T00:20:22;18.92;;;12.40;;
55672;SDS011;41554;45.366;20.400;2023-06-22T00:22:52;18.80;;;12.77;;
55672;SDS011;41554;45.366;20.400;2023-06-22T00:25:19;15.05;;;12.20;;
55672;SDS011;41554;45.366;20.400;2023-06-22T00:27:45;13.82;;;11.90;;
55672;SDS011;41554;45.366;20.400;2023-06-22T00:30:11;19.15;;;12.13;;
55672;SDS011;41554;45.366;20.400;2023-06-22T00:32:37;20.45;;;12.10;;
55672;SDS011;41554;45.366;20.400;2023-06-22T00:35:03;15.88;;;13.18;;
55672;SDS011;41554;45.366;20.400;2023-06-22T00:37:29;18.00;;;11.48;;
55672;SDS011;41554;45.366;20.400;2023-06-22T00:39:55;19.27;;;13.27;;
55672;SDS011;41554;45.366;20.400;2023-06-22T00:42:22;13.25;;;10.80;;
55672;SDS011;41554;45.366;20.400;2023-06-22T00:44:48;13.95;;;12.13;;
55672;SDS011;41554;45.366;20.400;2023-06-22T00:47:15;15.93;;;12.15;;
55672;SDS011;41554;45.366;20.400;2023-06-22T00:49:41;15.90;;;12.07;;
55672;SDS011;41554;45.366;20.400;2023-06-22T00:52:07;17.25;;;12.65;;
55672;SDS011;41554;45.366;20.400;2023-06-22T00:54:38;20.23;;;14.00;;
55672;SDS011;41554;45.366;20.400;2023-06-22T00:57:04;19.90;;;12.00;;
55672;SDS011;41554;45.366;20.400;2023-06-22T00:59:33;17.13;;;12.30;;
55672;SDS011;41554;45.366;20.400;2023-06-22T01:02:00;13.38;;;10.90;;
55672;SDS011;41554;45.366;20.400;2023-06-22T01:04:34;20.27;;;11.15;;
55672;SDS011;41554;45.366;20.400;2023-06-22T01:07:11;19.15;;;12.82;;
55672;SDS011;41554;45.366;20.400;2023-06-22T01:09:45;15.23;;;12.45;;
55672;SDS011;41554;45.366;20.400;2023-06-22T01:12:13;20.88;;;11.30;;
55672;SDS011;41554;45.366;20.400;2023-06-22T01:14:42;32.90;;;12.15;;
55672;SDS011;41554;45.366;20.400;2023-06-22T01:17:09;16.15;;;11.13;;
55672;SDS011;41554;45.366;20.400;2023-06-22T01:19:44;21.17;;;10.97;;
55672;SDS011;41554;45.366;20.400;2023-06-22T01:22:19;14.23;;;10.10;;
55672;SDS011;41554;45.366;20.400;2023-06-22T01:30:07;14.07;;;10.98;;
55672;SDS011;41554;45.366;20.400;2023-06-22T01:32:35;12.98;;;10.70;;
55672;SDS011;41554;45.366;20.400;2023-06-22T01:35:03;19.58;;;10.50;;
55672;SDS011;41554;45.366;20.400;2023-06-22T01:37:30;14.25;;;10.23;;
55672;SDS011;41554;45.366;20.400;2023-06-22T01:39:58;16.23;;;11.75;;
55672;SDS011;41554;45.366;20.400;2023-06-22T01:42:25;17.67;;;11.65;;
55672;SDS011;41554;45.366;20.400;2023-06-22T01:44:52;17.95;;;11.43;;
55672;SDS011;41554;45.366;20.400;2023-06-22T01:47:19;31.55;;;12.60;;
55672;SDS011;41554;45.366;20.400;2023-06-22T01:49:46;12.38;;;8.95;;
55672;SDS011;41554;45.366;20.400;2023-06-22T01:52:12;11.48;;;9.63;;
55672;SDS011;41554;45.366;20.400;2023-06-22T01:54:39;15.15;;;10.63;;
55672;SDS011;41554;45.366;20.400;2023-06-22T01:57:05;14.93;;;10.23;;
55672;SDS011;41554;45.366;20.400;2023-06-22T01:59:32;15.57;;;10.70;;
55672;SDS011;41554;45.366;20.400;2023-06-22T02:02:02;16.70;;;10.63;;
55672;SDS011;41554;45.366;20.400;2023-06-22T02:04:36;18.23;;;10.27;;
55672;SDS011;41554;45.366;20.400;2023-06-22T02:07:05;17.45;;;12.00;;
55672;SDS011;41554;45.366;20.400;2023-06-22T02:09:31;17.85;;;8.77;;
55672;SDS011;41554;45.366;20.400;2023-06-22T02:11:58;13.75;;;9.43;;
55672;SDS011;41554;45.366;20.400;2023-06-22T02:14:25;14.30;;;11.52;;
55672;SDS011;41554;45.366;20.400;2023-06-22T02:16:52;12.93;;;8.48;;
55672;SDS011;41554;45.366;20.400;2023-06-22T02:19:22;13.10;;;9.75;;
55672;SDS011;41554;45.366;20.400;2023-06-22T02:21:48;10.23;;;8.75;;
55672;SDS011;41554;45.366;20.400;2023-06-22T02:24:14;12.88;;;9.30;;
55672;SDS011;41554;45.366;20.400;2023-06-22T02:26:40;10.52;;;9.43;;
55672;SDS011;41554;45.366;20.400;2023-06-22T02:29:07;17.50;;;10.93;;
55672;SDS011;41554;45.366;20.400;2023-06-22T02:31:33;14.48;;;9.20;;
55672;SDS011;41554;45.366;20.400;2023-06-22T02:33:59;13.52;;;9.38;;
55672;SDS011;41554;45.366;20.400;2023-06-22T02:36:25;16.83;;;8.90;;
55672;SDS011;41554;45.366;20.400;2023-06-22T02:38:52;17.38;;;9.95;;
55672;SDS011;41554;45.366;20.400;2023-06-22T02:41:19;17.58;;;11.45;;
55672;SDS011;41554;45.366;20.400;2023-06-22T02:43:45;13.93;;;9.98;;
55672;SDS011;41554;45.366;20.400;2023-06-22T02:46:12;11.98;;;9.90;;
55672;SDS011;41554;45.366;20.400;2023-06-22T02:48:41;12.48;;;10.27;;
55672;SDS011;41554;45.366;20.400;2023-06-22T02:51:07;17.80;;;11.32;;
55672;SDS011;41554;45.366;20.400;2023-06-22T02:53:33;16.27;;;10.23;;
55672;SDS011;41554;45.366;20.400;2023-06-22T02:56:01;13.55;;;9.60;;
55672;SDS011;41554;45.366;20.400;2023-06-22T02:58:30;11.68;;;8.32;;
55672;SDS011;41554;45.366;20.400;2023-06-22T03:00:58;15.18;;;10.30;;
55672;SDS011;41554;45.366;20.400;2023-06-22T03:03:29;11.90;;;9.00;;
55672;SDS011;41554;45.366;20.400;2023-06-22T03:05:55;22.35;;;11.70;;
55672;SDS011;41554;45.366;20.400;2023-06-22T03:08:21;15.57;;;10.75;;
55672;SDS011;41554;45.366;20.400;2023-06-22T03:10:47;15.57;;;11.63;;
55672;SDS011;41554;45.366;20.400;2023-06-22T03:13:13;14.15;;;10.50;;
55672;SDS011;41554;45.366;20.400;2023-06-22T03:15:39;14.35;;;9.15;;
55672;SDS011;41554;45.366;20.400;2023-06-22T03:18:05;11.55;;;9.43;;
55672;SDS011;41554;45.366;20.400;2023-06-22T03:20:31;15.77;;;10.02;;
55672;SDS011;41554;45.366;20.400;2023-06-22T03:22:58;12.63;;;9.75;;
55672;SDS011;41554;45.366;20.400;2023-06-22T03:25:25;17.27;;;9.85;;
55672;SDS011;41554;45.366;20.400;2023-06-22T03:27:51;14.98;;;10.13;;
55672;SDS011;41554;45.366;20.400;2023-06-22T03:30:17;23.55;;;11.68;;
55672;SDS011;41554;45.366;20.400;2023-06-22T03:32:43;12.55;;;10.32;;
55672;SDS011;41554;45.366;20.400;2023-06-22T03:35:09;18.92;;;10.55;;
55672;SDS011;41554;45.366;20.400;2023-06-22T03:37:38;16.02;;;11.55;;
55672;SDS011;41554;45.366;20.400;2023-06-22T03:40:04;20.80;;;9.77;;
55672;SDS011;41554;45.366;20.400;2023-06-22T03:42:30;17.42;;;11.13;;
55672;SDS011;41554;45.366;20.400;2023-06-22T03:44:56;9.27;;;7.68;;
55672;SDS011;41554;45.366;20.400;2023-06-22T03:47:22;12.50;;;9.73;;
55672;SDS011;41554;45.366;20.400;2023-06-22T03:49:49;14.85;;;10.73;;
55672;SDS011;41554;45.366;20.400;2023-06-22T03:52:15;13.85;;;8.40;;
55672;SDS011;41554;45.366;20.400;2023-06-22T03:54:41;13.70;;;10.68;;
55672;SDS011;41554;45.366;20.400;2023-06-22T03:57:07;13.38;;;9.52;;
55672;SDS011;41554;45.366;20.400;2023-06-22T03:59:33;14.57;;;10.38;;
55672;SDS011;41554;45.366;20.400;2023-06-22T04:01:59;12.05;;;9.93;;
55672;SDS011;41554;45.366;20.400;2023-06-22T04:04:25;11.68;;;8.95;;
55672;SDS011;41554;45.366;20.400;2023-06-22T04:06:51;20.30;;;10.75;;
55672;SDS011;41554;45.366;20.400;2023-06-22T04:09:17;15.43;;;11.02;;
55672;SDS011;41554;45.366;20.400;2023-06-22T04:11:43;17.27;;;10.55;;
55672;SDS011;41554;45.366;20.400;2023-06-22T04:14:09;12.13;;;9.20;;
55672;SDS011;41554;45.366;20.400;2023-06-22T04:16:35;20.02;;;11.07;;
55672;SDS011;41554;45.366;20.400;2023-06-22T04:19:01;12.20;;;10.43;;
55672;SDS011;41554;45.366;20.400;2023-06-22T04:21:27;14.73;;;10.18;;
55672;SDS011;41554;45.366;20.400;2023-06-22T04:23:53;16.15;;;11.05;;
55672;SDS011;41554;45.366;20.400;2023-06-22T04:26:19;13.35;;;11.27;;
55672;SDS011;41554;45.366;20.400;2023-06-22T04:28:46;15.25;;;10.52;;
55672;SDS011;41554;45.366;20.400;2023-06-22T04:31:16;22.98;;;10.20;;
55672;SDS011;41554;45.366;20.400;2023-06-22T04:33:44;12.65;;;9.75;;
55672;SDS011;41554;45.366;20.400;2023-06-22T04:36:10;12.88;;;9.65;;
55672;SDS011;41554;45.366;20.400;2023-06-22T04:38:40;12.23;;;10.45;;
55672;SDS011;41554;45.366;20.400;2023-06-22T04:41:07;13.15;;;11.00;;
55672;SDS011;41554;45.366;20.400;2023-06-22T04:43:35;14.15;;;11.73;;
55672;SDS011;41554;45.366;20.400;2023-06-22T04:46:01;14.80;;;11.27;;
55672;SDS011;41554;45.366;20.400;2023-06-22T04:48:31;13.85;;;10.15;;
55672;SDS011;41554;45.366;20.400;2023-06-22T04:50:58;11.88;;;10.18;;
55672;SDS011;41554;45.366;20.400;2023-06-22T04:53:28;12.80;;;10.40;;
55672;SDS011;41554;45.366;20.400;2023-06-22T04:55:54;13.07;;;10.00;;
55672;SDS011;41554;45.366;20.400;2023-06-22T04:58:21;13.55;;;11.32;;
55672;SDS011;41554;45.366;20.400;2023-06-22T05:00:47;12.32;;;10.27;;
55672;SDS011;41554;45.366;20.400;2023-06-22T05:03:16;13.10;;;10.63;;
55672;SDS011;41554;45.366;20.400;2023-06-22T05:05:43;16.88;;;8.77;;
55672;SDS011;41554;45.366;20.400;2023-06-22T05:08:09;12.85;;;9.20;;
55672;SDS011;41554;45.366;20.400;2023-06-22T05:10:35;12.90;;;8.93;;
55672;SDS011;41554;45.366;20.400;2023-06-22T05:13:01;11.45;;;9.52;;
55672;SDS011;41554;45.366;20.400;2023-06-22T05:15:27;20.35;;;11.00;;
55672;SDS011;41554;45.366;20.400;2023-06-22T05:17:55;12.43;;;10.10;;
55672;SDS011;41554;45.366;20.400;2023-06-22T05:20:23;13.48;;;10.63;;
55672;SDS011;41554;45.366;20.400;2023-06-22T05:22:49;16.35;;;11.27;;
55672;SDS011;41554;45.366;20.400;2023-06-22T05:25:15;17.10;;;12.10;;
55672;SDS011;41554;45.366;20.400;2023-06-22T05:27:41;12.85;;;9.57;;
55672;SDS011;41554;45.366;20.400;2023-06-22T05:30:09;18.20;;;13.15;;
55672;SDS011;41554;45.366;20.400;2023-06-22T05:32:36;26.17;;;15.98;;
55672;SDS011;41554;45.366;20.400;2023-06-22T05:35:03;25.35;;;14.07;;
55672;SDS011;41554;45.366;20.400;2023-06-22T05:37:29;19.25;;;11.75;;
55672;SDS011;41554;45.366;20.400;2023-06-22T05:39:56;14.95;;;10.25;;
55672;SDS011;41554;45.366;20.400;2023-06-22T05:42:22;14.70;;;10.27;;
55672;SDS011;41554;45.366;20.400;2023-06-22T05:44:50;13.65;;;11.10;;
55672;SDS011;41554;45.366;20.400;2023-06-22T05:47:16;12.23;;;9.63;;
55672;SDS011;41554;45.366;20.400;2023-06-22T05:49:42;14.63;;;10.77;;
55672;SDS011;41554;45.366;20.400;2023-06-22T05:52:08;18.65;;;9.68;;
55672;SDS011;41554;45.366;20.400;2023-06-22T05:54:34;25.50;;;12.40;;
55672;SDS011;41554;45.366;20.400;2023-06-22T05:57:00;11.23;;;10.10;;
55672;SDS011;41554;45.366;20.400;2023-06-22T05:59:27;36.75;;;13.38;;
55672;SDS011;41554;45.366;20.400;2023-06-22T06:01:53;18.05;;;13.77;;
55672;SDS011;41554;45.366;20.400;2023-06-22T06:04:19;17.50;;;12.68;;
55672;SDS011;41554;45.366;20.400;2023-06-22T06:06:45;16.73;;;12.70;;
55672;SDS011;41554;45.366;20.400;2023-06-22T06:09:14;16.80;;;13.75;;
55672;SDS011;41554;45.366;20.400;2023-06-22T06:11:40;19.88;;;14.73;;
55672;SDS011;41554;45.366;20.400;2023-06-22T06:14:07;16.08;;;13.38;;
55672;SDS011;41554;45.366;20.400;2023-06-22T06:16:33;21.30;;;13.10;;
55672;SDS011;41554;45.366;20.400;2023-06-22T06:18:59;19.75;;;13.75;;
55672;SDS011;41554;45.366;20.400;2023-06-22T06:21:25;16.50;;;10.55;;
55672;SDS011;41554;45.366;20.400;2023-06-22T06:23:51;18.38;;;13.00;;
55672;SDS011;41554;45.366;20.400;2023-06-22T06:26:18;16.80;;;12.05;;
55672;SDS011;41554;45.366;20.400;2023-06-22T06:28:55;17.35;;;12.27;;
55672;SDS011;41554;45.366;20.400;2023-06-22T06:31:21;14.00;;;12.18;;
55672;SDS011;41554;45.366;20.400;2023-06-22T06:33:48;18.10;;;12.57;;
55672;SDS011;41554;45.366;20.400;2023-06-22T06:36:14;36.00;;;13.82;;
55672;SDS011;41554;45.366;20.400;2023-06-22T06:38:41;15.90;;;11.90;;
55672;SDS011;41554;45.366;20.400;2023-06-22T06:41:07;12.40;;;11.05;;
55672;SDS011;41554;45.366;20.400;2023-06-22T06:43:33;11.43;;;9.18;;
55672;SDS011;41554;45.366;20.400;2023-06-22T06:45:59;14.20;;;8.98;;
55672;SDS011;41554;45.366;20.400;2023-06-22T06:48:25;11.52;;;9.55;;
55672;SDS011;41554;45.366;20.400;2023-06-22T06:50:51;11.65;;;9.52;;
55672;SDS011;41554;45.366;20.400;2023-06-22T06:53:17;14.07;;;10.93;;
55672;SDS011;41554;45.366;20.400;2023-06-22T06:55:43;25.02;;;11.45;;
55672;SDS011;41554;45.366;20.400;2023-06-22T06:58:10;21.45;;;13.48;;
55672;SDS011;41554;45.366;20.400;2023-06-22T07:00:38;14.07;;;11.02;;
55672;SDS011;41554;45.366;20.400;2023-06-22T07:03:04;14.32;;;10.20;;
55672;SDS011;41554;45.366;20.400;2023-06-22T07:05:32;18.33;;;10.57;;
55672;SDS011;41554;45.366;20.400;2023-06-22T07:07:58;15.25;;;12.93;;
55672;SDS011;41554;45.366;20.400;2023-06-22T07:10:24;13.60;;;10.32;;
55672;SDS011;41554;45.366;20.400;2023-06-22T07:12:50;18.00;;;10.60;;
55672;SDS011;41554;45.366;20.400;2023-06-22T07:15:16;25.10;;;14.63;;
55672;SDS011;41554;45.366;20.400;2023-06-22T07:17:42;13.30;;;9.38;;
55672;SDS011;41554;45.366;20.400;2023-06-22T07:20:08;15.55;;;10.35;;
55672;SDS011;41554;45.366;20.400;2023-06-22T07:22:40;18.27;;;9.32;;
55672;SDS011;41554;45.366;20.400;2023-06-22T07:25:06;15.00;;;9.90;;
55672;SDS011;41554;45.366;20.400;2023-06-22T07:27:39;11.75;;;9.23;;
55672;SDS011;41554;45.366;20.400;2023-06-22T07:30:07;12.68;;;9.35;;
55672;SDS011;41554;45.366;20.400;2023-06-22T07:32:34;13.27;;;9.63;;
55672;SDS011;41554;45.366;20.400;2023-06-22T07:35:00;10.57;;;8.18;;
55672;SDS011;41554;45.366;20.400;2023-06-22T07:37:26;12.63;;;8.80;;
55672;SDS011;41554;45.366;20.400;2023-06-22T07:39:53;14.30;;;8.55;;
55672;SDS011;41554;45.366;20.400;2023-06-22T07:42:23;9.27;;;8.07;;
55672;SDS011;41554;45.366;20.400;2023-06-22T07:44:49;19.23;;;10.50;;
55672;SDS011;41554;45.366;20.400;2023-06-22T07:47:16;12.50;;;8.18;;
55672;SDS011;41554;45.366;20.400;2023-06-22T07:49:45;14.65;;;7.97;;
55672;SDS011;41554;45.366;20.400;2023-06-22T07:52:11;9.85;;;6.93;;
55672;SDS011;41554;45.366;20.400;2023-06-22T07:54:37;9.35;;;7.20;;
55672;SDS011;41554;45.366;20.400;2023-06-22T07:57:04;9.77;;;8.07;;
55672;SDS011;41554;45.366;20.400;2023-06-22T07:59:30;12.88;;;9.05;;
55672;SDS011;41554;45.366;20.400;2023-06-22T08:01:56;12.13;;;8.65;;
55672;SDS011;41554;45.366;20.400;2023-06-22T08:04:22;11.40;;;8.73;;
55672;SDS011;41554;45.366;20.400;2023-06-22T08:06:48;16.23;;;9.60;;
55672;SDS011;41554;45.366;20.400;2023-06-22T08:09:14;10.85;;;8.25;;
55672;SDS011;41554;45.366;20.400;2023-06-22T08:11:40;14.68;;;9.02;;
55672;SDS011;41554;45.366;20.400;2023-06-22T08:14:06;17.33;;;10.57;;
55672;SDS011;41554;45.366;20.400;2023-06-22T08:16:32;19.73;;;10.43;;
55672;SDS011;41554;45.366;20.400;2023-06-22T08:18:58;9.38;;;8.45;;
55672;SDS011;41554;45.366;20.400;2023-06-22T08:21:24;12.07;;;8.23;;
55672;SDS011;41554;45.366;20.400;2023-06-22T08:23:50;11.02;;;9.80;;
55672;SDS011;41554;45.366;20.400;2023-06-22T08:26:16;14.40;;;8.25;;
55672;SDS011;41554;45.366;20.400;2023-06-22T08:28:42;11.10;;;7.88;;
55672;SDS011;41554;45.366;20.400;2023-06-22T08:31:08;11.35;;;8.70;;
55672;SDS011;41554;45.366;20.400;2023-06-22T08:33:37;14.27;;;9.47;;
55672;SDS011;41554;45.366;20.400;2023-06-22T08:36:03;8.95;;;7.75;;
55672;SDS011;41554;45.366;20.400;2023-06-22T08:38:31;11.43;;;8.73;;
55672;SDS011;41554;45.366;20.400;2023-06-22T08:40:57;14.82;;;8.90;;
55672;SDS011;41554;45.366;20.400;2023-06-22T08:43:23;25.88;;;9.98;;
55672;SDS011;41554;45.366;20.400;2023-06-22T08:45:49;8.98;;;8.07;;
55672;SDS011;41554;45.366;20.400;2023-06-22T08:48:15;11.48;;;8.35;;
55672;SDS011;41554;45.366;20.400;2023-06-22T08:50:41;9.98;;;8.50;;
55672;SDS011;41554;45.366;20.400;2023-06-22T08:53:07;18.42;;;8.57;;
55672;SDS011;41554;45.366;20.400;2023-06-22T08:55:33;9.82;;;8.27;;
55672;SDS011;41554;45.366;20.400;2023-06-22T08:57:59;13.00;;;8.25;;
55672;SDS011;41554;45.366;20.400;2023-06-22T09:00:25;10.55;;;8.57;;
55672;SDS011;41554;45.366;20.400;2023-06-22T09:02:54;9.70;;;8.45;;
55672;SDS011;41554;45.366;20.400;2023-06-22T09:05:24;12.25;;;9.75;;
55672;SDS011;41554;45.366;20.400;2023-06-22T09:07:53;10.25;;;8.18;;
55672;SDS011;41554;45.366;20.400;2023-06-22T09:10:20;12.52;;;8.00;;
55672;SDS011;41554;45.366;20.400;2023-06-22T09:12:46;11.05;;;9.25;;
55672;SDS011;41554;45.366;20.400;2023-06-22T09:15:12;10.95;;;9.40;;
55672;SDS011;41554;45.366;20.400;2023-06-22T09:17:38;18.67;;;9.50;;
55672;SDS011;41554;45.366;20.400;2023-06-22T09:20:04;23.27;;;10.85;;
55672;SDS011;41554;45.366;20.400;2023-06-22T09:22:31;12.60;;;9.07;;
55672;SDS011;41554;45.366;20.400;2023-06-22T09:24:58;14.25;;;10.20;;
55672;SDS011;41554;45.366;20.400;2023-06-22T09:27:25;13.98;;;9.25;;
55672;SDS011;41554;45.366;20.400;2023-06-22T09:29:51;12.73;;;9.50;;
55672;SDS011;41554;45.366;20.400;2023-06-22T09:32:17;12.23;;;10.00;;
55672;SDS011;41554;45.366;20.400;2023-06-22T09:34:43;9.77;;;8.40;;
55672;SDS011;41554;45.366;20.400;2023-06-22T09:37:09;9.90;;;8.63;;
55672;SDS011;41554;45.366;20.400;2023-06-22T09:39:35;11.18;;;9.07;;
55672;SDS011;41554;45.366;20.400;2023-06-22T09:42:02;15.48;;;9.48;;
55672;SDS011;41554;45.366;20.400;2023-06-22T09:44:28;13.98;;;9.15;;
55672;SDS011;41554;45.366;20.400;2023-06-22T09:46:54;16.60;;;10.52;;
55672;SDS011;41554;45.366;20.400;2023-06-22T09:49:20;11.25;;;9.18;;
55672;SDS011;41554;45.366;20.400;2023-06-22T09:51:46;15.60;;;10.68;;
55672;SDS011;41554;45.366;20.400;2023-06-22T09:54:12;12.55;;;9.65;;
55672;SDS011;41554;45.366;20.400;2023-06-22T09:56:38;13.13;;;10.40;;
55672;SDS011;41554;45.366;20.400;2023-06-22T09:59:04;12.73;;;10.27;;
55672;SDS011;41554;45.366;20.400;2023-06-22T10:01:30;21.05;;;11.63;;
55672;SDS011;41554;45.366;20.400;2023-06-22T10:03:56;16.73;;;10.88;;
55672;SDS011;41554;45.366;20.400;2023-06-22T10:06:23;22.27;;;11.55;;
55672;SDS011;41554;45.366;20.400;2023-06-22T10:08:50;13.18;;;10.38;;
55672;SDS011;41554;45.366;20.400;2023-06-22T10:11:16;18.15;;;9.75;;
55672;SDS011;41554;45.366;20.400;2023-06-22T10:13:42;22.75;;;10.82;;
55672;SDS011;41554;45.366;20.400;2023-06-22T10:16:08;18.50;;;9.25;;
55672;SDS011;41554;45.366;20.400;2023-06-22T10:18:34;11.85;;;10.60;;
55672;SDS011;41554;45.366;20.400;2023-06-22T10:21:01;10.88;;;9.57;;
55672;SDS011;41554;45.366;20.400;2023-06-22T10:23:27;9.27;;;7.90;;
55672;SDS011;41554;45.366;20.400;2023-06-22T10:25:53;11.30;;;10.02;;
55672;SDS011;41554;45.366;20.400;2023-06-22T10:28:22;21.50;;;10.00;;
55672;SDS011;41554;45.366;20.400;2023-06-22T10:30:48;11.15;;;9.50;;
55672;SDS011;41554;45.366;20.400;2023-06-22T10:33:14;24.20;;;9.25;;
55672;SDS011;41554;45.366;20.400;2023-06-22T10:35:40;12.32;;;9.50;;
55672;SDS011;41554;45.366;20.400;2023-06-22T10:38:06;9.98;;;8.50;;
55672;SDS011;41554;45.366;20.400;2023-06-22T10:40:33;10.02;;;9.02;;
55672;SDS011;41554;45.366;20.400;2023-06-22T10:42:59;10.55;;;8.38;;
55672;SDS011;41554;45.366;20.400;2023-06-22T10:45:25;13.10;;;9.30;;
55672;SDS011;41554;45.366;20.400;2023-06-22T10:47:52;13.38;;;8.90;;
55672;SDS011;41554;45.366;20.400;2023-06-22T10:50:18;13.10;;;8.68;;
55672;SDS011;41554;45.366;20.400;2023-06-22T10:52:45;14.25;;;10.30;;
55672;SDS011;41554;45.366;20.400;2023-06-22T10:55:11;12.63;;;9.15;;
55672;SDS011;41554;45.366;20.400;2023-06-22T10:57:37;9.13;;;8.13;;
55672;SDS011;41554;45.366;20.400;2023-06-22T11:02:33;13.25;;;8.18;;
55672;SDS011;41554;45.366;20.400;2023-06-22T11:04:59;17.80;;;9.32;;
55672;SDS011;41554;45.366;20.400;2023-06-22T11:07:26;12.60;;;8.73;;
55672;SDS011;41554;45.366;20.400;2023-06-22T11:09:55;12.68;;;7.93;;
55672;SDS011;41554;45.366;20.400;2023-06-22T11:12:21;9.55;;;8.07;;
55672;SDS011;41554;45.366;20.400;2023-06-22T11:14:47;12.80;;;9.02;;
55672;SDS011;41554;45.366;20.400;2023-06-22T11:17:15;10.40;;;8.55;;
55672;SDS011;41554;45.366;20.400;2023-06-22T11:19:41;11.95;;;8.05;;
55672;SDS011;41554;45.366;20.400;2023-06-22T11:22:07;10.27;;;9.05;;
55672;SDS011;41554;45.366;20.400;2023-06-22T11:24:33;10.50;;;8.45;;
55672;SDS011;41554;45.366;20.400;2023-06-22T11:26:59;13.27;;;8.32;;
55672;SDS011;41554;45.366;20.400;2023-06-22T11:29:25;13.65;;;9.25;;
55672;SDS011;41554;45.366;20.400;2023-06-22T11:31:51;12.77;;;9.27;;
55672;SDS011;41554;45.366;20.400;2023-06-22T11:34:17;10.88;;;8.93;;
55672;SDS011;41554;45.366;20.400;2023-06-22T11:36:44;10.35;;;8.02;;
55672;SDS011;41554;45.366;20.400;2023-06-22T11:39:10;11.60;;;8.90;;
55672;SDS011;41554;45.366;20.400;2023-06-22T11:41:39;10.63;;;8.80;;
55672;SDS011;41554;45.366;20.400;2023-06-22T11:44:05;13.70;;;9.82;;
55672;SDS011;41554;45.366;20.400;2023-06-22T11:46:31;14.32;;;8.35;;
55672;SDS011;41554;45.366;20.400;2023-06-22T11:48:58;8.02;;;7.10;;
55672;SDS011;41554;45.366;20.400;2023-06-22T11:51:24;12.85;;;8.98;;
55672;SDS011;41554;45.366;20.400;2023-06-22T11:53:50;11.80;;;8.25;;
55672;SDS011;41554;45.366;20.400;2023-06-22T11:56:16;19.70;;;13.18;;
55672;SDS011;41554;45.366;20.400;2023-06-22T11:58:42;10.38;;;9.32;;
55672;SDS011;41554;45.366;20.400;2023-06-22T12:01:08;15.77;;;10.52;;
55672;SDS011;41554;45.366;20.400;2023-06-22T12:03:34;12.18;;;9.05;;
55672;SDS011;41554;45.366;20.400;2023-06-22T12:06:00;10.63;;;9.50;;
55672;SDS011;41554;45.366;20.400;2023-06-22T12:08:26;15.90;;;10.60;;
55672;SDS011;41554;45.366;20.400;2023-06-22T12:10:52;16.10;;;9.60;;
55672;SDS011;41554;45.366;20.400;2023-06-22T12:13:19;10.98;;;9.77;;
55672;SDS011;41554;45.366;20.400;2023-06-22T12:15:45;15.68;;;9.02;;
55672;SDS011;41554;45.366;20.400;2023-06-22T12:18:11;16.35;;;8.98;;
55672;SDS011;41554;45.366;20.400;2023-06-22T12:20:39;11.60;;;9.55;;
55672;SDS011;41554;45.366;20.400;2023-06-22T12:23:05;9.45;;;8.48;;
55672;SDS011;41554;45.366;20.400;2023-06-22T12:25:31;14.23;;;9.15;;
55672;SDS011;41554;45.366;20.400;2023-06-22T12:27:57;11.35;;;10.15;;
55672;SDS011;41554;45.366;20.400;2023-06-22T12:30:23;9.68;;;8.25;;
55672;SDS011;41554;45.366;20.400;2023-06-22T12:32:49;12.68;;;8.82;;
55672;SDS011;41554;45.366;20.400;2023-06-22T12:35:16;9.07;;;8.10;;
55672;SDS011;41554;45.366;20.400;2023-06-22T12:37:42;10.95;;;8.63;;
55672;SDS011;41554;45.366;20.400;2023-06-22T12:40:09;12.07;;;8.80;;
55672;SDS011;41554;45.366;20.400;2023-06-22T12:42:35;10.50;;;7.78;;
55672;SDS011;41554;45.366;20.400;2023-06-22T12:45:01;9.50;;;8.52;;
55672;SDS011;41554;45.366;20.400;2023-06-22T12:47:27;10.82;;;9.52;;
55672;SDS011;41554;45.366;20.400;2023-06-22T12:49:53;11.48;;;8.55;;
55672;SDS011;41554;45.366;20.400;2023-06-22T12:52:19;13.52;;;8.93;;
55672;SDS011;41554;45.366;20.400;2023-06-22T12:54:46;10.40;;;9.30;;
55672;SDS011;41554;45.366;20.400;2023-06-22T12:57:12;13.20;;;10.23;;
55672;SDS011;41554;45.366;20.400;2023-06-22T12:59:39;14.95;;;9.40;;
55672;SDS011;41554;45.366;20.400;2023-06-22T13:02:05;18.92;;;10.18;;
55672;SDS011;41554;45.366;20.400;2023-06-22T13:04:31;12.05;;;9.32;;
55672;SDS011;41554;45.366;20.400;2023-06-22T13:06:57;12.18;;;10.15;;
55672;SDS011;41554;45.366;20.400;2023-06-22T13:09:23;11.20;;;9.70;;
55672;SDS011;41554;45.366;20.400;2023-06-22T13:11:49;20.73;;;11.52;;
55672;SDS011;41554;45.366;20.400;2023-06-22T13:14:16;19.70;;;11.38;;
55672;SDS011;41554;45.366;20.400;2023-06-22T13:16:42;11.45;;;10.02;;
55672;SDS011;41554;45.366;20.400;2023-06-22T13:19:08;20.83;;;12.00;;
55672;SDS011;41554;45.366;20.400;2023-06-22T13:21:34;13.63;;;10.93;;
55672;SDS011;41554;45.366;20.400;2023-06-22T13:24:00;12.68;;;10.98;;
55672;SDS011;41554;45.366;20.400;2023-06-22T13:26:26;17.33;;;12.70;;
55672;SDS011;41554;45.366;20.400;2023-06-22T13:28:53;14.13;;;11.82;;
55672;SDS011;41554;45.366;20.400;2023-06-22T13:31:20;13.48;;;12.10;;
55672;SDS011;41554;45.366;20.400;2023-06-22T13:33:46;10.88;;;9.75;;
55672;SDS011;41554;45.366;20.400;2023-06-22T13:36:13;11.75;;;10.02;;
55672;SDS011;41554;45.366;20.400;2023-06-22T13:38:40;13.77;;;10.45;;
55672;SDS011;41554;45.366;20.400;2023-06-22T13:41:06;11.77;;;10.50;;
55672;SDS011;41554;45.366;20.400;2023-06-22T13:43:32;12.43;;;9.15;;
55672;SDS011;41554;45.366;20.400;2023-06-22T13:45:58;17.25;;;11.50;;
55672;SDS011;41554;45.366;20.400;2023-06-22T13:48:24;14.40;;;11.07;;
55672;SDS011;41554;45.366;20.400;2023-06-22T13:50:51;11.88;;;10.55;;
55672;SDS011;41554;45.366;20.400;2023-06-22T13:53:17;14.45;;;9.43;;
55672;SDS011;41554;45.366;20.400;2023-06-22T13:55:43;13.68;;;10.50;;
55672;SDS011;41554;45.366;20.400;2023-06-22T13:58:09;13.77;;;9.57;;
55672;SDS011;41554;45.366;20.400;2023-06-22T14:00:35;11.40;;;9.32;;
55672;SDS011;41554;45.366;20.400;2023-06-22T14:03:01;11.05;;;9.00;;
55672;SDS011;41554;45.366;20.400;2023-06-22T14:05:27;13.40;;;9.63;;
55672;SDS011;41554;45.366;20.400;2023-06-22T14:07:53;14.82;;;11.52;;
55672;SDS011;41554;45.366;20.400;2023-06-22T14:10:19;11.90;;;9.48;;
55672;SDS011;41554;45.366;20.400;2023-06-22T14:12:45;11.23;;;10.15;;
55672;SDS011;41554;45.366;20.400;2023-06-22T14:15:11;13.75;;;10.02;;
55672;SDS011;41554;45.366;20.400;2023-06-22T14:17:37;13.77;;;8.88;;
55672;SDS011;41554;45.366;20.400;2023-06-22T14:20:03;16.90;;;12.27;;